Latest Weather Observations for Nhill Aerodrome

IDV60801

Issued at 9:31 am EST Sunday 19 April 2015 (issued every 30 minutes, with the page automatically refreshed every 10 minutes)

About weather observations | Map of weather stations | Latest weather observations for VIC | Other Formats
Station Details ID: 078015 Name: NHILL AERODROME Lat: -36.31 Lon: 141.65 Height: 138.9 m
Data from the previous 72 hours. | See also: Recent months at Nhill Aerodrome
Date/Time
EST
Temp
°C
App
Temp
°C
Dew
Point
Rel
Hum
%
Delta-T
°C
Wind Press
QNH
hPa
Press
MSL
hPa
Rain
since 9 am
mm
Dir
 
Spd
km/h
Gust
km/h
Spd
kts
Gust
kts
19/09:30am 10.1 3.6 6.4 78 1.7 S 30 35 16 19 1030.3 1030.1 0.0
19/09:00am 9.1 3.6 7.5 90 0.8 SSW 26 32 14 17 1030.0 1029.8 0.8
19/08:30am 8.0 3.5 7.1 94 0.4 SSW 20 26 11 14 1029.2 1029.0 0.8
19/08:00am 6.8 2.7 6.2 96 0.3 SSW 17 20 9 11 1028.4 1028.2 0.8
19/07:30am 5.8 1.6 5.5 98 0.1 SSW 17 24 9 13 1027.7 1027.6 0.8
19/07:00am 5.4 1.1 5.3 99 0.0 SW 17 20 9 11 1027.0 1026.9 0.8
19/06:30am 5.1 1.5 5.0 99 0.0 SW 13 17 7 9 1026.4 1026.3 0.8
19/06:00am 5.5 1.6 5.4 99 0.0 SW 15 19 8 10 1025.8 1025.7 0.8
19/05:30am 5.6 1.4 5.5 99 0.0 SW 17 20 9 11 1025.2 1025.1 0.8
19/05:00am 5.7 1.9 5.6 99 0.0 SW 15 20 8 11 1024.8 1024.7 0.8
19/04:30am 5.3 2.1 5.2 99 0.0 SSW 11 15 6 8 1024.5 1024.3 0.8
19/04:00am 5.1 2.3 5.0 99 0.0 SSW 9 11 5 6 1024.1 1023.9 0.8
19/03:30am 6.1 3.1 5.8 98 0.1 SW 11 13 6 7 1023.7 1023.5 0.8
19/03:00am 6.8 3.0 5.9 94 0.4 SW 15 19 8 10 1023.6 1023.4 0.8
19/02:30am 7.7 2.6 6.0 89 0.8 SW 22 28 12 15 1023.4 1023.2 0.8
19/02:00am 7.6 3.5 6.4 92 0.5 SW 17 22 9 12 1023.2 1023.0 0.8
19/01:30am 7.6 3.7 7.0 96 0.3 WSW 17 20 9 11 1022.9 1022.7 0.8
19/01:00am 8.1 4.3 7.7 97 0.2 WSW 17 20 9 11 1022.5 1022.3 0.8
19/12:30am 8.4 4.7 7.8 96 0.3 SW 17 20 9 11 1022.0 1021.8 0.8
19/12:00am 8.8 4.8 8.2 96 0.3 SW 19 22 10 12 1021.7 1021.5 0.8
 
Date/Time
EST
Temp
°C
App
Temp
°C
Dew
Point
Rel
Hum
%
Delta-T
°C
Wind Press
QNH
hPa
Press
MSL
hPa
Rain
since 9 am
mm
Dir
 
Spd
km/h
Gust
km/h
Spd
kts
Gust
kts
18/11:30pm 9.0 5.1 8.7 98 0.1 SW 19 24 10 13 1021.5 1021.3 0.8
18/11:00pm 9.6 5.7 9.5 99 0.0 SW 20 26 11 14 1021.2 1021.0 0.8
18/10:30pm 9.8 6.0 9.7 99 0.1 WSW 20 26 11 14 1021.0 1020.8 0.8
18/10:00pm 10.2 6.7 10.2 100 0.0 WSW 19 22 10 12 1020.4 1020.3 0.8
18/09:30pm 10.6 7.6 10.6 100 0.0 WSW 17 26 9 14 1020.0 1019.9 0.8
18/09:00pm 10.8 7.8 10.8 100 0.0 WSW 17 20 9 11 1019.4 1019.3 0.8
18/08:30pm 10.9 7.4 10.9 100 0.0 SW 20 24 11 13 1018.8 1018.7 0.8
18/08:00pm 11.0 7.7 11.0 100 0.0 SW 19 24 10 13 1018.3 1018.1 0.8
18/07:30pm 11.0 7.5 11.0 100 0.0 SW 20 26 11 14 1018.0 1017.8 0.8
18/07:00pm 11.1 6.9 11.1 100 0.0 SW 24 33 13 18 1017.1 1016.9 0.6
18/06:30pm 11.3 6.0 11.1 99 0.1 SW 30 37 16 20 1016.8 1016.6 0.4
18/06:12pm 11.4 5.8 11.4 100 0.0 SW 32 56 17 30 1016.4 1016.2 0.4
18/06:00pm 12.7 7.3 12.7 100 0.0 SW 33 44 18 24 1015.9 1015.7 0.2
18/05:30pm 13.7 7.8 13.5 99 0.1 SW 37 52 20 28 1014.8 1014.6 0.0
18/05:00pm 15.9 9.3 12.5 80 1.9 SW 39 48 21 26 1014.0 1013.8 0.0
18/04:37pm 17.8 11.9 12.3 70 3.1 W 35 54 19 29 1013.5 1013.3 0.0
18/04:33pm 18.9 13.5 11.0 60 4.3 W 30 50 16 27 1013.3 1013.1 0.0
18/04:30pm 18.8 13.3 10.6 59 4.4 W 30 41 16 22 1013.2 1013.0 0.0
18/04:00pm 19.2 13.0 10.2 56 4.9 WNW 33 46 18 25 1013.2 1013.0 0.0
18/03:30pm 20.0 13.3 9.6 51 5.6 WNW 35 52 19 28 1013.0 1012.9 0.0
18/03:00pm 19.5 13.4 10.5 56 4.9 W 33 46 18 25 1013.3 1013.1 0.0
18/02:30pm 19.2 13.2 10.2 56 4.9 WNW 32 43 17 23 1013.4 1013.2 0.0
18/02:00pm 19.0 13.9 10.6 58 4.6 WNW 28 48 15 26 1013.7 1013.5 0.0
18/01:30pm 18.4 12.3 10.3 59 4.4 WNW 33 44 18 24 1014.1 1013.9 0.0
18/01:00pm 19.0 12.3 9.8 55 4.9 W 35 46 19 25 1014.4 1014.2 0.0
18/12:30pm 18.8 13.2 10.1 57 4.7 W 30 37 16 20 1014.8 1014.6 0.0
18/12:00pm 18.3 13.9 10.4 60 4.3 WNW 24 32 13 17 1015.2 1015.0 0.0
18/11:30am 17.1 12.8 10.9 67 3.4 WNW 24 33 13 18 1015.6 1015.4 0.0
18/11:00am 15.8 12.7 12.2 79 2.0 W 20 28 11 15 1015.7 1015.5 0.0
18/10:30am 14.0 10.9 13.4 96 0.3 W 22 28 12 15 1015.9 1015.7 0.0
18/10:00am 13.0 9.8 13.0 100 0.0 W 22 32 12 17 1016.3 1016.1 0.0
18/09:30am 12.2 8.7 12.2 100 0.0 W 22 28 12 15 1016.5 1016.3 0.0
18/09:00am 11.6 8.9 11.6 100 0.0 WNW 17 20 9 11 1016.5 1016.3 2.2
18/08:30am 10.8 8.6 10.8 100 0.0 WNW 13 19 7 10 1016.1 1015.9 2.2
18/08:00am 11.2 9.9 11.2 100 0.0 WNW 9 13 5 7 1015.6 1015.4 2.2
18/07:30am 10.5 8.6 10.5 100 0.0 W 11 11 6 6 1015.1 1014.9 2.2
18/07:00am 10.8 8.6 10.8 100 0.0 W 13 17 7 9 1014.8 1014.6 2.2
18/06:30am 11.3 9.2 11.3 100 0.0 W 13 17 7 9 1014.6 1014.4 2.2
18/06:00am 11.7 9.0 11.7 100 0.0 W 17 20 9 11 1014.6 1014.4 2.2
18/05:30am 11.8 10.3 11.8 100 0.0 W 11 15 6 8 1014.7 1014.5 2.2
18/05:00am 11.9 10.4 11.9 100 0.0 WSW 11 15 6 8 1014.4 1014.2 2.2
18/04:30am 12.3 10.2 12.3 100 0.0 WSW 15 19 8 10 1014.2 1014.0 2.2
18/04:00am 12.3 10.9 12.3 100 0.0 W 11 13 6 7 1014.2 1014.0 2.2
18/03:30am 12.3 10.9 12.3 100 0.0 WSW 11 15 6 8 1014.0 1013.8 2.2
18/03:00am 12.3 10.9 12.3 100 0.0 WSW 11 15 6 8 1014.2 1014.0 2.2
18/02:30am 12.4 10.7 12.4 100 0.0 WSW 13 17 7 9 1014.4 1014.2 2.2
18/02:00am 12.3 11.3 12.3 100 0.0 W 9 11 5 6 1014.6 1014.4 2.0
18/01:30am 12.3 12.6 12.3 100 0.0 SW 2 7 1 4 1014.5 1014.3 2.0
18/01:00am 12.4 11.8 12.4 100 0.0 SW 7 11 4 6 1014.6 1014.4 2.0
18/12:30am 12.4 13.2 12.4 100 0.0 CALM 0 0 0 0 1014.8 1014.6 2.0
18/12:00am 12.4 13.2 12.4 100 0.0 CALM 0 0 0 0 1015.2 1015.0 2.0
 
Date/Time
EST
Temp
°C
App
Temp
°C
Dew
Point
Rel
Hum
%
Delta-T
°C
Wind Press
QNH
hPa
Press
MSL
hPa
Rain
since 9 am
mm
Dir
 
Spd
km/h
Gust
km/h
Spd
kts
Gust
kts
17/11:30pm 12.4 13.2 12.4 100 0.0 CALM 0 0 0 0 1015.4 1015.2 2.0
17/11:00pm 12.4 13.2 12.4 100 0.0 CALM 0 0 0 0 1015.9 1015.7 2.0
17/10:30pm 12.5 12.5 12.5 100 0.0 ESE 4 6 2 3 1016.0 1015.8 1.8
17/10:00pm 12.6 12.1 12.6 100 0.0 E 7 9 4 5 1015.7 1015.5 1.8
17/09:30pm 12.5 11.2 12.5 100 0.0 E 11 13 6 7 1015.7 1015.5 1.8
17/09:00pm 12.6 11.7 12.6 100 0.0 ENE 9 13 5 7 1015.8 1015.6 1.8
17/08:30pm 12.5 11.6 12.5 100 0.0 ENE 9 13 5 7 1015.9 1015.7 1.6
17/08:00pm 12.6 11.7 12.6 100 0.0 ENE 9 15 5 8 1016.0 1015.8 1.6
17/07:30pm 12.5 10.4 12.5 100 0.0 E 15 20 8 11 1015.9 1015.7 1.6
17/07:00pm 12.5 10.4 12.5 100 0.0 E 15 19 8 10 1016.0 1015.8 1.6
17/06:30pm 12.5 10.8 12.5 100 0.0 E 13 17 7 9 1016.0 1015.8 1.6
17/06:00pm 12.5 10.8 12.5 100 0.0 E 13 17 7 9 1015.9 1015.7 1.6
17/05:30pm 12.5 10.4 12.5 100 0.0 E 15 20 8 11 1016.1 1015.9 1.6
17/05:00pm 12.4 10.3 12.4 100 0.0 E 15 20 8 11 1016.2 1016.0 1.2
17/04:30pm 12.4 9.5 12.4 100 0.0 E 19 24 10 13 1016.3 1016.1 1.2
17/04:00pm 12.6 9.6 12.6 100 0.0 E 20 24 11 13 1016.5 1016.3 1.0
17/03:30pm 12.7 9.3 12.5 99 0.1 E 22 28 12 15 1016.6 1016.4 1.0
17/03:00pm 12.9 9.5 12.4 97 0.3 E 22 26 12 14 1017.1 1016.9 1.0
17/02:30pm 13.3 10.5 13.1 99 0.1 E 20 28 11 15 1017.3 1017.1 1.0
17/02:00pm 12.6 9.6 12.4 99 0.1 ESE 20 24 11 13 1017.8 1017.6 1.0
17/01:30pm 12.7 9.9 12.7 100 0.0 E 19 22 10 12 1018.3 1018.1 1.0
17/01:00pm 12.3 10.6 12.3 100 0.0 ENE 13 17 7 9 1019.7 1019.6 1.0
17/12:30pm 12.2 10.0 12.0 99 0.1 ENE 15 19 8 10 1020.5 1020.4 0.8
17/12:00pm 12.1 9.4 11.6 97 0.3 ENE 17 22 9 12 1020.5 1020.4 0.8
17/11:30am 12.1 9.7 11.3 95 0.4 ENE 15 20 8 11 1020.9 1020.7 0.8
17/11:00am 12.5 10.8 10.0 85 1.3 ENE 9 17 5 9 1021.9 1021.7 0.2
17/10:30am 12.4 9.0 10.6 89 0.9 E 19 24 10 13 1021.3 1021.1 0.2
17/10:00am 12.1 8.8 9.7 85 1.2 E 17 20 9 11 1021.6 1021.4 0.0
17/09:30am 12.1 8.2 8.8 80 1.7 E 19 22 10 12 1021.9 1021.7 0.0
17/09:00am 12.4 8.5 7.3 71 2.5 ESE 17 20 9 11 1022.1 1021.9 0.0
17/08:30am 11.9 8.2 7.8 76 2.0 ESE 17 20 9 11 1022.1 1021.9 0.0
17/08:00am 11.2 8.3 8.1 81 1.5 SE 13 15 7 8 1022.5 1022.3 0.0
17/07:30am 11.2 8.7 8.1 81 1.5 SE 11 13 6 7 1022.7 1022.5 0.0
17/07:00am 11.3 9.5 8.0 80 1.6 SE 7 9 4 5 1022.8 1022.6 0.0
17/06:30am 11.4 8.8 7.9 79 1.7 SE 11 13 6 7 1022.9 1022.7 0.0
17/06:00am 11.6 9.3 7.5 76 2.0 SE 9 11 5 6 1022.6 1022.4 0.0
17/05:30am 11.9 8.7 6.8 71 2.4 ENE 13 17 7 9 1022.0 1021.8 0.0
17/05:00am 12.0 8.8 6.7 70 2.5 NE 13 17 7 9 1021.9 1021.7 0.0
17/04:30am 12.0 9.1 6.7 70 2.5 E 11 15 6 8 1022.1 1021.9 0.0
17/04:00am 12.1 8.5 6.6 69 2.6 E 15 19 8 10 1022.0 1021.8 0.0
17/03:30am 12.1 9.2 6.6 69 2.6 ESE 11 15 6 8 1022.4 1022.2 0.0
17/03:00am 12.3 9.9 6.8 69 2.6 ESE 9 13 5 7 1022.9 1022.7 0.0
17/02:30am 12.5 8.8 6.5 67 2.9 ESE 15 19 8 10 1023.1 1022.9 0.0
17/02:00am 12.7 9.5 6.7 67 2.9 SE 13 19 7 10 1023.0 1022.8 0.0
17/01:30am 12.8 9.9 6.6 66 3.0 SE 11 13 6 7 1023.1 1022.9 0.0
17/01:00am 13.0 10.1 6.6 65 3.1 ESE 11 13 6 7 1023.6 1023.4 0.0
17/12:30am 12.9 10.4 6.5 65 3.1 ESE 9 11 5 6 1024.2 1024.0 0.0
17/12:00am 13.0 10.1 6.6 65 3.1 SSE 11 15 6 8 1024.7 1024.6 0.0
 
Date/Time
EST
Temp
°C
App
Temp
°C
Dew
Point
Rel
Hum
%
Delta-T
°C
Wind Press
QNH
hPa
Press
MSL
hPa
Rain
since 9 am
mm
Dir
 
Spd
km/h
Gust
km/h
Spd
kts
Gust
kts
16/11:30pm 13.3 10.5 6.9 65 3.1 SSE 11 13 6 7 1025.0 1024.9 0.0
16/11:00pm 13.2 10.5 7.2 67 2.9 S 11 13 6 7 1025.3 1025.2 0.0
16/10:30pm 13.2 11.2 8.5 73 2.4 SSW 9 9 5 5 1025.2 1025.1 0.0
16/10:00pm 13.5 13.0 7.9 69 2.8 CALM 0 0 0 0 1025.3 1025.2 0.0
16/09:30pm 14.2 13.7 7.7 65 3.2 CALM 0 0 0 0 1025.4 1025.3 0.0
16/09:00pm 14.1 13.1 7.4 64 3.3 SW 2 6 1 3 1025.4 1025.3 0.0
16/08:30pm 14.2 12.4 7.3 63 3.4 SW 6 6 3 3 1025.0 1024.9 0.0
16/08:00pm 14.3 12.6 7.6 64 3.3 SW 6 7 3 4 1024.7 1024.6 0.0
16/07:30pm 14.1 12.4 8.3 68 2.9 SW 7 9 4 5 1024.6 1024.5 0.0
16/07:00pm 15.2 14.6 7.5 60 3.8 CALM 0 0 0 0 1024.4 1024.2 0.0
16/06:30pm 15.5 14.9 7.5 59 4.0 CALM 0 0 0 0 1024.2 1024.0 0.0
16/06:00pm 16.1 14.1 7.3 56 4.4 SW 7 9 4 5 1024.4 1024.2 0.0
16/05:30pm 16.4 13.3 7.3 55 4.6 SW 13 17 7 9 1024.6 1024.5 0.0
16/05:00pm 16.6 13.6 7.5 55 4.6 WSW 13 17 7 9 1025.0 1024.9 0.0
16/04:30pm 16.6 13.7 8.1 57 4.3 WSW 13 17 7 9 1025.1 1025.0 0.0
16/04:00pm 16.7 14.2 8.4 58 4.2 WSW 11 15 6 8 1024.9 1024.8 0.0
16/03:30pm 16.8 14.3 8.0 56 4.5 SW 11 17 6 9 1024.8 1024.7 0.0
16/03:00pm 17.0 14.8 7.9 55 4.6 S 9 15 5 8 1024.4 1024.2 0.0
16/02:30pm 17.0 14.8 7.9 55 4.6 S 9 19 5 10 1024.3 1024.1 0.0
16/02:00pm 17.1 13.9 8.3 56 4.5 S 15 20 8 11 1024.5 1024.3 0.0
16/01:30pm 16.6 13.0 8.3 58 4.3 S 17 20 9 11 1024.4 1024.2 0.0
16/01:00pm 16.8 13.2 8.2 57 4.4 SSW 17 24 9 13 1024.7 1024.6 0.0
16/12:30pm 16.6 13.7 8.3 58 4.3 S 13 19 7 10 1025.7 1025.6 0.0
16/12:00pm 16.5 13.3 8.5 59 4.1 S 15 20 8 11 1025.9 1025.8 0.0
16/11:30am 16.8 13.9 9.5 62 3.8 SSE 15 20 8 11 1026.1 1026.0 0.0
16/11:00am 16.4 13.9 9.6 64 3.5 S 13 19 7 10 1026.5 1026.4 0.0
16/10:30am 16.4 12.8 9.8 65 3.5 S 19 24 10 13 1026.5 1026.4 0.0
16/10:00am 15.7 12.5 11.1 74 2.5 S 19 24 10 13 1027.0 1026.9 0.0

Other Formats:

Comma delimited format used in spreadsheet applications
http://www.bom.gov.au/fwo/IDV60801/IDV60801.94827.axf

JavaScript Object Notation format (JSON) in row-major order
http://www.bom.gov.au/fwo/IDV60801/IDV60801.94827.json